createdAt,value
2023-08-14T00:01:22.737Z,7.53
2023-08-14T00:06:26.814Z,8.30
2023-08-14T00:11:30.894Z,7.00
2023-08-14T00:16:34.799Z,8.27
2023-08-14T00:21:39.086Z,7.72
2023-08-14T00:26:42.952Z,6.43
2023-08-14T00:31:47.692Z,6.22
2023-08-14T00:36:51.773Z,8.73
2023-08-14T00:41:56.420Z,6.15
2023-08-14T00:47:00.555Z,7.22
2023-08-14T00:52:04.767Z,7.75
2023-08-14T00:57:08.881Z,8.85
2023-08-14T01:02:12.971Z,7.35
2023-08-14T01:07:17.255Z,8.15
2023-08-14T01:12:54.478Z,6.07
2023-08-14T01:18:02.761Z,7.93
2023-08-14T01:23:24.162Z,7.43
2023-08-14T01:28:29.658Z,6.43
2023-08-14T01:33:34.724Z,6.07
2023-08-14T01:39:03.143Z,5.70
2023-08-14T01:44:12.416Z,9.20
2023-08-14T01:49:19.533Z,6.03
2023-08-14T01:54:23.566Z,8.60
2023-08-14T01:59:46.153Z,6.30
2023-08-14T02:04:52.262Z,6.15
2023-08-14T02:09:58.082Z,6.47
2023-08-14T02:15:03.298Z,5.63
2023-08-14T02:20:10.177Z,4.97
2023-08-14T02:25:14.173Z,7.32
2023-08-14T02:30:18.386Z,7.82
2023-08-14T02:35:22.636Z,8.57
2023-08-14T02:40:26.648Z,11.02
2023-08-14T02:45:31.871Z,10.18
2023-08-14T02:50:35.825Z,12.82
2023-08-14T02:55:40.087Z,10.80
2023-08-14T03:00:44.145Z,12.85
2023-08-14T03:05:48.389Z,9.93
2023-08-14T03:10:52.658Z,9.43
2023-08-14T03:15:56.947Z,14.13
2023-08-14T03:21:01.241Z,12.75
2023-08-14T03:26:06.831Z,20.20
2023-08-14T03:31:11.634Z,18.90
2023-08-14T03:36:15.675Z,19.15
2023-08-14T03:41:21.498Z,20.35
2023-08-14T03:46:25.501Z,25.10
2023-08-14T03:51:29.625Z,21.17
2023-08-14T03:56:33.534Z,20.13
2023-08-14T04:01:39.843Z,20.73
2023-08-14T04:06:46.260Z,17.40
2023-08-14T04:11:50.838Z,17.52
2023-08-14T04:16:56.179Z,16.88
2023-08-14T04:22:00.262Z,18.25
2023-08-14T04:27:04.303Z,15.02
2023-08-14T04:32:49.710Z,15.07
2023-08-14T04:37:53.790Z,16.42
2023-08-14T04:42:58.070Z,14.43
2023-08-14T04:48:02.356Z,17.88
2023-08-14T04:53:08.428Z,17.75
2023-08-14T04:58:15.541Z,18.58
2023-08-14T05:03:19.781Z,15.07
2023-08-14T05:08:23.882Z,15.05
2023-08-14T05:13:28.094Z,17.90
2023-08-14T05:18:32.302Z,15.38
2023-08-14T05:23:36.371Z,18.15
2023-08-14T05:28:40.656Z,18.67
2023-08-14T05:33:44.623Z,19.45
2023-08-14T05:38:48.760Z,19.05
2023-08-14T05:43:52.870Z,18.58
2023-08-14T05:48:56.983Z,21.85
2023-08-14T05:54:01.190Z,18.45
2023-08-14T05:59:05.349Z,17.08
2023-08-14T06:04:09.461Z,19.10
2023-08-14T06:09:17.918Z,21.38
2023-08-14T06:14:22.521Z,17.25
2023-08-14T06:19:26.651Z,19.35
2023-08-14T06:24:31.516Z,15.73
2023-08-14T06:29:35.469Z,13.93
2023-08-14T06:34:39.746Z,14.43
2023-08-14T06:39:44.275Z,16.17
2023-08-14T06:44:48.360Z,16.23
2023-08-14T06:49:52.710Z,15.50
2023-08-14T06:54:56.732Z,13.90
2023-08-14T07:00:14.027Z,14.73
2023-08-14T07:05:18.184Z,14.77
2023-08-14T07:10:22.358Z,14.93
2023-08-14T07:15:28.097Z,14.07
2023-08-14T07:20:32.457Z,13.73
2023-08-14T07:25:36.436Z,11.60
2023-08-14T07:30:41.676Z,11.85
2023-08-14T07:35:45.886Z,13.32
2023-08-14T07:40:50.099Z,15.02
2023-08-14T07:45:54.474Z,11.20
2023-08-14T07:50:58.590Z,14.18
2023-08-14T07:56:05.225Z,12.88
2023-08-14T08:01:12.760Z,7.97
2023-08-14T08:06:16.801Z,8.60
2023-08-14T08:11:20.959Z,8.95
2023-08-14T08:16:25.008Z,7.78
2023-08-14T08:21:29.952Z,7.80
2023-08-14T08:26:33.880Z,7.70
2023-08-14T08:31:38.155Z,8.25
2023-08-14T08:36:42.278Z,8.88
2023-08-14T08:41:48.473Z,7.95
2023-08-14T08:47:05.389Z,8.95
2023-08-14T08:52:10.236Z,9.20
2023-08-14T08:57:14.502Z,6.70
2023-08-14T09:02:19.138Z,6.78
2023-08-14T09:07:23.678Z,5.57
2023-08-14T09:12:27.976Z,7.25
2023-08-14T09:17:32.626Z,6.18
2023-08-14T09:22:40.342Z,11.52
2023-08-14T09:27:45.113Z,17.75
2023-08-14T09:32:49.520Z,8.63
2023-08-14T09:37:53.910Z,8.13
2023-08-14T09:43:01.910Z,8.70
2023-08-14T09:48:06.727Z,8.52
2023-08-14T09:53:11.170Z,9.30
2023-08-14T09:58:15.172Z,7.90
2023-08-14T10:03:21.238Z,8.77
2023-08-14T10:08:25.501Z,12.60
2023-08-14T10:13:30.441Z,8.02
2023-08-14T10:18:40.083Z,7.35
2023-08-14T10:28:49.960Z,7.93
2023-08-14T10:33:54.964Z,8.52
2023-08-14T10:39:10.649Z,8.43
2023-08-14T10:44:14.897Z,6.07
2023-08-14T10:49:19.095Z,5.82
2023-08-14T10:54:25.405Z,8.60
2023-08-14T10:59:30.215Z,7.13
2023-08-14T11:04:38.557Z,7.43
2023-08-14T11:09:48.521Z,6.70
2023-08-14T11:14:52.951Z,5.55
2023-08-14T11:19:57.056Z,5.32
2023-08-14T11:25:01.250Z,4.55
2023-08-14T11:30:08.998Z,5.18
2023-08-14T11:40:29.505Z,5.90
2023-08-14T11:45:34.072Z,5.82
2023-08-14T11:50:37.967Z,4.70
2023-08-14T11:55:42.360Z,5.80
2023-08-14T12:00:52.473Z,5.35
2023-08-14T12:06:05.897Z,6.20
2023-08-14T12:11:11.294Z,5.82
2023-08-14T12:16:19.014Z,5.00
2023-08-14T12:21:29.513Z,6.07
2023-08-14T12:26:45.480Z,4.85
2023-08-14T12:31:49.606Z,5.82
2023-08-14T12:36:53.834Z,5.57
2023-08-14T12:41:58.343Z,4.45
2023-08-14T12:47:02.583Z,6.57
2023-08-14T12:52:10.109Z,5.43
2023-08-14T12:57:17.905Z,5.30
2023-08-14T13:02:25.530Z,6.00
2023-08-14T13:07:30.868Z,6.00
2023-08-14T13:12:35.193Z,6.80
2023-08-14T13:17:39.374Z,6.88
2023-08-14T13:22:43.696Z,6.35
2023-08-14T13:27:48.013Z,6.55
2023-08-14T13:32:52.060Z,7.55
2023-08-14T13:37:56.103Z,9.88
2023-08-14T13:43:00.241Z,12.73
2023-08-14T13:48:04.538Z,10.20
2023-08-14T13:53:08.726Z,9.75
2023-08-14T13:58:13.080Z,10.70
2023-08-14T14:03:17.117Z,11.20
2023-08-14T14:08:23.758Z,10.30
2023-08-14T14:13:28.038Z,12.32
2023-08-14T14:18:32.250Z,12.25
2023-08-14T14:23:36.171Z,11.65
2023-08-14T14:28:40.545Z,10.95
2023-08-14T14:33:44.517Z,12.85
2023-08-14T14:38:48.524Z,12.75
2023-08-14T14:43:52.777Z,13.57
2023-08-14T14:48:56.741Z,11.40
2023-08-14T14:54:00.790Z,10.35
2023-08-14T14:59:04.752Z,14.00
2023-08-14T15:04:08.912Z,17.73
2023-08-14T15:09:13.256Z,27.67
2023-08-14T15:14:17.571Z,22.17
2023-08-14T15:19:22.253Z,21.17
2023-08-14T15:24:26.314Z,21.92
2023-08-14T15:29:30.365Z,18.15
2023-08-14T15:34:34.561Z,23.85
2023-08-14T15:39:39.606Z,28.63
2023-08-14T15:44:43.706Z,32.83
2023-08-14T15:49:47.774Z,15.85
2023-08-14T15:54:53.894Z,16.95
2023-08-14T15:59:58.289Z,12.25
2023-08-14T16:05:02.574Z,17.85
2023-08-14T16:10:08.371Z,23.02
2023-08-14T16:15:14.919Z,23.75
2023-08-14T16:20:18.903Z,19.27
2023-08-14T16:25:23.062Z,19.88
2023-08-14T16:30:27.010Z,16.88
2023-08-14T16:35:31.276Z,16.70
2023-08-14T16:40:41.677Z,10.93
2023-08-14T16:45:50.445Z,5.82
2023-08-14T16:50:55.388Z,4.90
2023-08-14T16:55:59.504Z,4.43
2023-08-14T17:01:03.673Z,5.88
2023-08-14T17:06:26.711Z,5.03
2023-08-14T17:11:49.664Z,6.13
2023-08-14T17:16:54.258Z,6.75
2023-08-14T17:21:58.265Z,9.50
2023-08-14T17:27:02.446Z,7.20
2023-08-14T17:32:06.785Z,5.97
2023-08-14T17:37:35.415Z,6.03
2023-08-14T17:42:40.514Z,5.63
2023-08-14T17:47:44.654Z,3.58
2023-08-14T17:52:48.576Z,5.10
2023-08-14T17:57:52.660Z,4.93
2023-08-14T18:02:56.594Z,3.00
2023-08-14T18:08:00.850Z,4.05
2023-08-14T18:13:05.349Z,5.80
2023-08-14T18:18:10.071Z,3.50
2023-08-14T18:23:14.095Z,3.67
2023-08-14T18:28:17.970Z,7.78
2023-08-14T18:33:22.108Z,4.82
2023-08-14T18:38:27.013Z,6.38
2023-08-14T18:43:31.115Z,4.82
2023-08-14T18:48:35.311Z,5.90
2023-08-14T18:53:39.372Z,6.97
2023-08-14T18:58:43.801Z,4.78
2023-08-14T19:03:47.743Z,5.78
2023-08-14T19:08:51.848Z,7.38
2023-08-14T19:13:55.916Z,4.97
2023-08-14T19:19:00.237Z,5.57
2023-08-14T19:24:04.646Z,3.40
2023-08-14T19:29:08.706Z,3.50
2023-08-14T19:34:12.828Z,4.22
2023-08-14T19:39:19.100Z,3.78
2023-08-14T19:44:32.317Z,4.15
2023-08-14T19:49:36.312Z,4.50
2023-08-14T19:54:40.459Z,3.92
2023-08-14T19:59:44.476Z,5.90
2023-08-14T20:04:50.767Z,5.57
2023-08-14T20:09:55.143Z,4.50
2023-08-14T20:14:59.564Z,4.03
2023-08-14T20:20:04.187Z,5.88
2023-08-14T20:25:08.694Z,3.22
2023-08-14T20:30:13.588Z,3.05
2023-08-14T20:35:17.465Z,4.13
2023-08-14T20:40:21.672Z,3.60
2023-08-14T20:45:25.649Z,4.95
2023-08-14T20:50:29.936Z,3.92
2023-08-14T20:55:35.362Z,3.25
2023-08-14T21:00:42.390Z,5.30
2023-08-14T21:05:47.749Z,4.82
2023-08-14T21:10:51.810Z,4.85
2023-08-14T21:16:00.372Z,4.50
2023-08-14T21:21:05.698Z,3.50
2023-08-14T21:26:09.563Z,2.80
2023-08-14T21:31:13.871Z,3.00
2023-08-14T21:36:17.910Z,4.22
2023-08-14T21:41:21.953Z,2.85
2023-08-14T21:46:26.050Z,3.63
2023-08-14T21:51:30.323Z,4.47
2023-08-14T21:56:34.552Z,3.08
2023-08-14T22:01:38.658Z,4.00
2023-08-14T22:06:42.715Z,5.85
2023-08-14T22:11:46.625Z,3.28
2023-08-14T22:16:52.814Z,6.78
2023-08-14T22:21:57.141Z,2.40
2023-08-14T22:27:03.409Z,3.00
2023-08-14T22:32:07.450Z,3.40
2023-08-14T22:37:11.757Z,4.90
2023-08-14T22:42:25.124Z,5.88
2023-08-14T22:47:29.071Z,4.25
2023-08-14T22:52:33.367Z,2.67
2023-08-14T22:57:37.343Z,5.20
2023-08-14T23:02:41.623Z,3.50
2023-08-14T23:07:45.604Z,4.22
2023-08-14T23:12:49.712Z,3.45
2023-08-14T23:17:53.896Z,3.35
2023-08-14T23:22:58.052Z,2.83
2023-08-14T23:28:02.224Z,4.00
2023-08-14T23:33:07.744Z,3.00
2023-08-14T23:38:11.954Z,2.85
2023-08-14T23:43:15.842Z,3.53
2023-08-14T23:48:20.173Z,2.95
2023-08-14T23:53:24.659Z,5.28
2023-08-14T23:58:28.600Z,2.92
